Terminal Aerodrome Forecast
Issued by NWS Duluth, MN

Home | Current Version | Previous Version | Text Only | Print | Product List | Glossary On
Versions: 1 2 3 4 5 6 7 8 9 10 11 12 13 14 15 16 17 18 19 20 21 22 23 24 25 26 27 28 29 30 31 32 33 34 35 36 37 38 39 40 41
808
FTUS43 KDLH 080127 AAB
TAFDLH
TAF AMD
KDLH 080127Z 0801/0824 31017G25KT 1SM -SN BR OVC013
     FM080400 32018G28KT 2SM -SN BLSN OVC015
     FM080900 32017G27KT 5SM -SN BLSN OVC020
     FM081600 33016G26KT P6SM -SN SCT025 OVC035=

USA.gov is the U.S. government's official web portal to all federal, state and local government web resources and services.